createdAt,value
2023-01-15T00:01:46.097Z,4.72
2023-01-15T00:04:14.072Z,4.67
2023-01-15T00:06:44.140Z,4.75
2023-01-15T00:09:15.641Z,4.70
2023-01-15T00:11:43.655Z,4.80
2023-01-15T00:14:12.433Z,4.73
2023-01-15T00:16:40.816Z,4.84
2023-01-15T00:19:10.990Z,4.88
2023-01-15T00:21:39.113Z,4.77
2023-01-15T00:24:25.692Z,4.83
2023-01-15T00:27:12.527Z,4.90
2023-01-15T00:29:40.310Z,4.90
2023-01-15T00:32:09.253Z,4.76
2023-01-15T00:34:37.121Z,4.82
2023-01-15T00:37:05.196Z,4.84
2023-01-15T00:39:35.532Z,4.83
2023-01-15T00:42:04.200Z,4.66
2023-01-15T00:44:33.828Z,4.58
2023-01-15T00:47:02.044Z,4.73
2023-01-15T00:49:30.337Z,4.63
2023-01-15T00:51:58.327Z,4.67
2023-01-15T00:54:26.215Z,4.70
2023-01-15T00:56:54.405Z,4.63
2023-01-15T00:59:22.157Z,4.66
2023-01-15T01:01:50.426Z,4.71
2023-01-15T01:04:18.215Z,4.62
2023-01-15T01:06:46.142Z,4.64
2023-01-15T01:09:15.676Z,4.57
2023-01-15T01:11:44.508Z,4.42
2023-01-15T01:14:13.268Z,4.51
2023-01-15T01:16:42.570Z,4.60
2023-01-15T01:19:17.869Z,4.50
2023-01-15T01:21:47.561Z,4.52
2023-01-15T01:24:22.073Z,4.58
2023-01-15T01:26:52.816Z,4.45
2023-01-15T01:29:23.857Z,4.49
2023-01-15T01:31:52.196Z,4.50
2023-01-15T01:34:19.884Z,4.37
2023-01-15T01:36:48.116Z,4.27
2023-01-15T01:39:18.496Z,4.47
2023-01-15T01:41:47.400Z,4.45
2023-01-15T01:44:37.085Z,4.34
2023-01-15T01:47:15.811Z,4.39
2023-01-15T01:49:46.355Z,4.34
2023-01-15T01:52:21.087Z,4.22
2023-01-15T01:54:51.310Z,4.15
2023-01-15T01:57:21.637Z,4.21
2023-01-15T01:59:50.126Z,4.30
2023-01-15T02:02:22.159Z,4.13
2023-01-15T02:04:51.213Z,4.17
2023-01-15T02:07:19.337Z,4.03
2023-01-15T02:09:47.218Z,3.95
2023-01-15T02:12:50.879Z,3.86
2023-01-15T02:15:32.607Z,3.90
2023-01-15T02:18:19.613Z,3.88
2023-01-15T02:21:04.949Z,3.84
2023-01-15T02:23:55.694Z,3.68
2023-01-15T02:26:45.117Z,3.65
2023-01-15T02:29:24.541Z,3.67
2023-01-15T02:31:53.370Z,3.64
2023-01-15T02:34:30.027Z,3.61
2023-01-15T02:37:06.285Z,3.77
2023-01-15T02:39:40.324Z,3.60
2023-01-15T02:42:11.246Z,3.74
2023-01-15T02:44:50.235Z,3.79
2023-01-15T02:47:24.348Z,3.84
2023-01-15T02:49:55.781Z,3.89
2023-01-15T02:52:39.053Z,3.94
2023-01-15T02:55:23.235Z,3.98
2023-01-15T02:57:55.853Z,3.93
2023-01-15T03:00:25.940Z,3.94
2023-01-15T03:03:13.124Z,3.83
2023-01-15T03:06:04.315Z,3.78
2023-01-15T03:08:32.707Z,3.68
2023-01-15T03:11:15.890Z,3.68
2023-01-15T03:13:49.304Z,3.72
2023-01-15T03:16:35.775Z,3.83
2023-01-15T03:19:35.961Z,3.79
2023-01-15T03:22:23.615Z,3.78
2023-01-15T03:25:02.838Z,3.95
2023-01-15T03:27:34.729Z,3.96
2023-01-15T03:30:15.897Z,3.90
2023-01-15T03:32:44.310Z,3.88
2023-01-15T03:35:50.837Z,4.07
2023-01-15T03:38:38.962Z,4.12
2023-01-15T03:41:09.871Z,4.18
2023-01-15T03:44:10.365Z,4.14
2023-01-15T03:46:53.082Z,4.21
2023-01-15T03:49:29.358Z,4.18
2023-01-15T03:52:03.331Z,4.29
2023-01-15T03:54:47.794Z,4.19
2023-01-15T03:57:22.895Z,4.33
2023-01-15T03:59:56.024Z,4.32
2023-01-15T04:02:25.279Z,4.34
2023-01-15T04:04:54.892Z,4.38
2023-01-15T04:07:24.965Z,4.46
2023-01-15T04:09:53.371Z,4.30
2023-01-15T04:12:21.809Z,4.26
2023-01-15T04:14:49.974Z,4.32
2023-01-15T04:17:21.312Z,4.32
2023-01-15T04:19:49.179Z,4.50
2023-01-15T04:22:17.220Z,4.44
2023-01-15T04:24:45.446Z,4.58
2023-01-15T04:27:13.265Z,4.46
2023-01-15T04:29:41.257Z,4.48
2023-01-15T04:32:08.940Z,4.56
2023-01-15T04:34:36.950Z,4.61
2023-01-15T04:37:04.852Z,4.64
2023-01-15T04:39:33.282Z,4.59
2023-01-15T04:42:19.384Z,4.58
2023-01-15T04:44:47.282Z,4.63
2023-01-15T04:47:14.968Z,4.66
2023-01-15T04:49:42.990Z,4.59
2023-01-15T04:52:10.669Z,4.56
2023-01-15T04:54:39.316Z,4.50
2023-01-15T04:57:07.123Z,4.56
2023-01-15T04:59:35.007Z,4.58
2023-01-15T05:02:05.969Z,4.59
2023-01-15T05:04:35.835Z,4.56
2023-01-15T05:07:05.302Z,4.46
2023-01-15T05:09:33.545Z,4.38
2023-01-15T05:12:01.139Z,4.45
2023-01-15T05:14:29.337Z,4.42
2023-01-15T05:16:57.086Z,4.48
2023-01-15T05:19:25.011Z,4.37
2023-01-15T05:21:53.823Z,4.29
2023-01-15T05:24:21.850Z,4.35
2023-01-15T05:26:49.515Z,4.26
2023-01-15T05:29:17.469Z,4.32
2023-01-15T05:31:45.343Z,4.44
2023-01-15T05:34:13.877Z,4.44
2023-01-15T05:36:42.137Z,4.22
2023-01-15T05:39:10.262Z,4.39
2023-01-15T05:41:50.874Z,4.34
2023-01-15T05:44:23.503Z,4.45
2023-01-15T05:46:53.750Z,4.61
2023-01-15T05:49:24.431Z,4.69
2023-01-15T05:51:53.260Z,4.63
2023-01-15T05:54:27.437Z,4.71
2023-01-15T05:56:55.764Z,4.79
2023-01-15T05:59:26.299Z,4.85
2023-01-15T06:01:54.308Z,4.89
2023-01-15T06:04:23.009Z,4.98
2023-01-15T06:06:51.787Z,5.10
2023-01-15T06:09:23.055Z,5.01
2023-01-15T06:11:53.742Z,5.05
2023-01-15T06:14:21.845Z,4.97
2023-01-15T06:16:49.471Z,5.05
2023-01-15T06:19:17.456Z,5.19
2023-01-15T06:21:45.078Z,5.18
2023-01-15T06:24:13.052Z,4.95
2023-01-15T06:26:40.877Z,5.08
2023-01-15T06:29:08.851Z,5.05
2023-01-15T06:31:36.599Z,5.16
2023-01-15T06:34:04.990Z,5.18
2023-01-15T06:36:32.682Z,5.13
2023-01-15T06:39:00.979Z,5.22
2023-01-15T06:41:47.307Z,5.20
2023-01-15T06:44:36.390Z,5.11
2023-01-15T06:47:24.219Z,5.27
2023-01-15T06:49:58.171Z,5.27
2023-01-15T06:52:27.749Z,5.20
2023-01-15T06:54:56.274Z,5.30
2023-01-15T06:57:24.088Z,5.20
2023-01-15T06:59:52.170Z,5.24
2023-01-15T07:02:21.681Z,5.31
2023-01-15T07:04:49.996Z,5.35
2023-01-15T07:07:20.597Z,5.19
2023-01-15T07:09:48.556Z,5.05
2023-01-15T07:12:17.263Z,5.07
2023-01-15T07:14:44.993Z,5.12
2023-01-15T07:17:13.395Z,5.18
2023-01-15T07:19:41.188Z,5.01
2023-01-15T07:22:10.882Z,5.16
2023-01-15T07:24:38.861Z,5.08
2023-01-15T07:27:07.278Z,5.09
2023-01-15T07:29:34.975Z,5.03
2023-01-15T07:32:03.145Z,4.88
2023-01-15T07:34:30.767Z,4.84
2023-01-15T07:36:58.685Z,4.88
2023-01-15T07:39:26.353Z,4.79
2023-01-15T07:42:13.066Z,4.78
2023-01-15T07:44:59.647Z,4.73
2023-01-15T07:47:46.601Z,4.71
2023-01-15T07:50:16.437Z,4.70
2023-01-15T07:52:44.499Z,4.61
2023-01-15T07:55:15.197Z,4.52
2023-01-15T07:57:43.894Z,4.65
2023-01-15T08:00:16.206Z,4.70
2023-01-15T08:02:46.061Z,4.56
2023-01-15T08:05:14.082Z,4.67
2023-01-15T08:07:43.083Z,4.57
2023-01-15T08:10:12.898Z,4.60
2023-01-15T08:13:00.109Z,4.74
2023-01-15T08:15:30.846Z,4.79
2023-01-15T08:17:58.744Z,4.74
2023-01-15T08:20:27.377Z,4.96
2023-01-15T08:22:55.522Z,4.90
2023-01-15T08:25:25.684Z,4.97
2023-01-15T08:27:54.162Z,4.95
2023-01-15T08:30:24.518Z,5.10
2023-01-15T08:32:52.826Z,5.08
2023-01-15T08:35:20.696Z,5.16
2023-01-15T08:37:48.682Z,5.21
2023-01-15T08:40:16.440Z,5.26
2023-01-15T08:42:44.439Z,5.27
2023-01-15T08:45:12.435Z,5.53
2023-01-15T08:47:40.629Z,5.54
2023-01-15T08:50:09.610Z,5.53
2023-01-15T08:52:38.657Z,5.65
2023-01-15T08:55:07.079Z,5.62
2023-01-15T08:57:35.577Z,5.64
2023-01-15T09:00:04.065Z,5.75
2023-01-15T09:02:32.201Z,5.78
2023-01-15T09:04:59.924Z,5.87
2023-01-15T09:07:27.912Z,5.86
2023-01-15T09:09:55.700Z,5.84
2023-01-15T09:12:26.449Z,5.88
2023-01-15T09:14:59.140Z,5.91
2023-01-15T09:17:33.095Z,5.92
2023-01-15T09:20:01.252Z,5.82
2023-01-15T09:22:31.053Z,5.76
2023-01-15T09:24:59.406Z,5.81
2023-01-15T09:27:28.797Z,5.75
2023-01-15T09:29:57.239Z,5.64
2023-01-15T09:32:25.497Z,5.63
2023-01-15T09:34:53.250Z,5.54
2023-01-15T09:37:21.270Z,5.38
2023-01-15T09:39:49.324Z,5.46
2023-01-15T09:42:22.716Z,5.46
2023-01-15T09:44:53.178Z,5.46
2023-01-15T09:47:34.655Z,5.25
2023-01-15T09:50:28.533Z,5.29
2023-01-15T09:53:05.323Z,5.26
2023-01-15T09:55:36.038Z,5.20
2023-01-15T09:58:06.188Z,5.23
2023-01-15T10:00:40.858Z,5.31
2023-01-15T10:03:35.896Z,5.22
2023-01-15T10:06:16.048Z,5.24
2023-01-15T10:08:47.361Z,5.27
2023-01-15T10:11:18.762Z,5.16
2023-01-15T10:13:48.565Z,5.13
2023-01-15T10:16:33.753Z,5.16
2023-01-15T10:19:02.717Z,5.24
2023-01-15T10:21:48.165Z,5.16
2023-01-15T10:24:23.411Z,5.10
2023-01-15T10:27:00.637Z,5.09
2023-01-15T10:29:49.371Z,5.10
2023-01-15T10:32:23.541Z,5.20
2023-01-15T10:35:08.901Z,5.08
2023-01-15T10:37:58.018Z,5.05
2023-01-15T10:40:31.480Z,5.16
2023-01-15T10:43:19.307Z,5.20
2023-01-15T10:46:12.937Z,5.12
2023-01-15T10:48:46.063Z,5.21
2023-01-15T10:51:28.096Z,5.21
2023-01-15T10:54:24.720Z,5.20
2023-01-15T10:57:01.883Z,5.12
2023-01-15T10:59:42.685Z,5.24
2023-01-15T11:02:32.487Z,5.24
2023-01-15T11:05:01.358Z,5.23
2023-01-15T11:07:50.110Z,5.23
2023-01-15T11:10:27.441Z,5.23
2023-01-15T11:13:17.321Z,5.19
2023-01-15T11:16:08.945Z,5.21
2023-01-15T11:19:00.403Z,5.05
2023-01-15T11:21:30.260Z,5.19
2023-01-15T11:24:00.241Z,5.18
2023-01-15T11:26:33.481Z,5.19
2023-01-15T11:29:14.895Z,5.22
2023-01-15T11:31:42.632Z,5.14
2023-01-15T11:34:24.304Z,5.22
2023-01-15T11:37:05.617Z,5.12
2023-01-15T11:39:34.060Z,5.15
2023-01-15T11:42:25.696Z,5.19
2023-01-15T11:45:14.472Z,5.23
2023-01-15T11:48:14.496Z,5.31
2023-01-15T11:51:16.101Z,5.29
2023-01-15T11:53:50.450Z,5.20
2023-01-15T11:56:27.492Z,5.16
2023-01-15T11:58:57.616Z,5.11
2023-01-15T12:01:32.869Z,5.11
2023-01-15T12:04:04.804Z,5.33
2023-01-15T12:06:36.977Z,5.23
2023-01-15T12:09:21.648Z,5.20
2023-01-15T12:12:17.445Z,5.23
2023-01-15T12:14:54.374Z,5.28
2023-01-15T12:17:50.658Z,5.28
2023-01-15T12:20:21.058Z,5.25
2023-01-15T12:22:51.800Z,5.18
2023-01-15T12:25:55.034Z,5.31
2023-01-15T12:28:29.123Z,5.34
2023-01-15T12:30:59.737Z,5.39
2023-01-15T12:33:47.713Z,5.26
2023-01-15T12:36:41.868Z,5.29
2023-01-15T12:39:26.871Z,5.23
2023-01-15T12:42:19.454Z,5.42
2023-01-15T12:45:04.925Z,5.29
2023-01-15T12:47:49.991Z,5.20
2023-01-15T12:50:44.694Z,5.33
2023-01-15T12:53:33.717Z,5.25
2023-01-15T12:56:29.321Z,5.29
2023-01-15T12:59:14.725Z,5.26
2023-01-15T13:02:12.732Z,5.49
2023-01-15T13:04:43.690Z,5.38
2023-01-15T13:07:19.621Z,5.42
2023-01-15T13:10:19.979Z,5.39
2023-01-15T13:12:48.209Z,5.56
2023-01-15T13:15:18.029Z,5.49
2023-01-15T13:18:21.959Z,5.46
2023-01-15T13:20:52.202Z,5.52
2023-01-15T13:23:38.433Z,5.64
2023-01-15T13:26:23.474Z,5.65
2023-01-15T13:28:52.265Z,5.68
2023-01-15T13:31:55.061Z,5.61
2023-01-15T13:34:38.999Z,5.53
2023-01-15T13:37:26.912Z,5.60
2023-01-15T13:40:01.616Z,5.68
2023-01-15T13:42:37.992Z,5.61
2023-01-15T13:45:27.897Z,5.75
2023-01-15T13:48:05.974Z,5.58
2023-01-15T13:50:37.394Z,5.74
2023-01-15T13:53:16.766Z,5.83
2023-01-15T13:56:01.487Z,5.64
2023-01-15T13:58:32.740Z,5.72
2023-01-15T14:01:22.015Z,5.76
2023-01-15T14:04:17.341Z,5.85
2023-01-15T14:06:50.839Z,5.85
2023-01-15T14:09:24.353Z,5.81
2023-01-15T14:12:07.315Z,5.69
2023-01-15T14:14:56.083Z,5.77
2023-01-15T14:18:20.628Z,5.76
2023-01-15T14:20:56.508Z,5.84
2023-01-15T14:23:33.082Z,5.74
2023-01-15T14:26:07.170Z,5.90
2023-01-15T14:28:50.526Z,5.89
2023-01-15T14:31:46.434Z,5.89
2023-01-15T14:34:17.258Z,5.89
2023-01-15T14:36:57.709Z,5.90
2023-01-15T14:39:41.865Z,5.75
2023-01-15T14:42:40.146Z,5.77
2023-01-15T14:45:12.366Z,5.87
2023-01-15T14:47:50.678Z,5.96
2023-01-15T14:50:31.466Z,5.98
2023-01-15T14:53:13.873Z,5.84
2023-01-15T14:56:07.155Z,6.07
2023-01-15T14:58:48.097Z,5.88
2023-01-15T15:01:41.432Z,5.83
2023-01-15T15:04:15.487Z,6.02
2023-01-15T15:07:07.560Z,5.90
2023-01-15T15:09:46.676Z,5.95
2023-01-15T15:12:33.027Z,6.09
2023-01-15T15:15:21.951Z,6.13
2023-01-15T15:18:12.630Z,5.95
2023-01-15T15:20:43.459Z,6.06
2023-01-15T15:23:30.312Z,6.12
2023-01-15T15:26:04.209Z,6.28
2023-01-15T15:28:32.327Z,5.96
2023-01-15T15:31:01.807Z,5.76
2023-01-15T15:33:40.415Z,6.00
2023-01-15T15:36:09.315Z,5.95
2023-01-15T15:38:41.763Z,5.95
2023-01-15T15:41:12.843Z,6.10
2023-01-15T15:44:11.198Z,6.04
2023-01-15T15:46:57.569Z,6.08
2023-01-15T15:49:25.581Z,5.99
2023-01-15T15:51:54.250Z,6.10
2023-01-15T15:54:29.791Z,6.17
2023-01-15T15:57:10.530Z,6.04
2023-01-15T15:59:52.414Z,6.21
2023-01-15T16:02:37.885Z,6.12
2023-01-15T16:05:23.925Z,6.02
2023-01-15T16:07:52.851Z,6.18
2023-01-15T16:10:50.947Z,6.06
2023-01-15T16:13:39.983Z,6.24
2023-01-15T16:16:09.139Z,6.25
2023-01-15T16:18:58.092Z,6.17
2023-01-15T16:21:41.505Z,6.10
2023-01-15T16:24:22.726Z,6.04
2023-01-15T16:27:12.024Z,6.10
2023-01-15T16:29:39.824Z,6.19
2023-01-15T16:32:13.309Z,6.23
2023-01-15T16:34:41.675Z,6.13
2023-01-15T16:37:30.760Z,6.08
2023-01-15T16:40:01.148Z,6.22
2023-01-15T16:42:40.056Z,6.12
2023-01-15T16:45:28.247Z,6.14
2023-01-15T16:48:08.205Z,6.16
2023-01-15T16:50:42.642Z,6.11
2023-01-15T16:53:33.771Z,6.23
2023-01-15T16:56:01.770Z,6.19
2023-01-15T16:58:41.419Z,6.19
2023-01-15T17:01:37.839Z,6.14
2023-01-15T17:04:34.236Z,5.93
2023-01-15T17:07:15.984Z,6.00
2023-01-15T17:09:51.198Z,6.09
2023-01-15T17:12:40.087Z,5.99
2023-01-15T17:15:17.659Z,6.06
2023-01-15T17:17:49.758Z,6.04
2023-01-15T17:20:19.865Z,6.04
2023-01-15T17:22:49.614Z,5.90
2023-01-15T17:25:35.220Z,5.84
2023-01-15T17:28:03.891Z,5.97
2023-01-15T17:30:33.183Z,5.95
2023-01-15T17:33:03.187Z,5.94
2023-01-15T17:35:36.917Z,6.01
2023-01-15T17:38:06.761Z,5.94
2023-01-15T17:40:34.915Z,6.03
2023-01-15T17:43:02.725Z,5.93
2023-01-15T17:45:32.537Z,6.06
2023-01-15T17:48:02.000Z,6.09
2023-01-15T17:50:30.647Z,5.99
2023-01-15T17:52:58.273Z,6.13
2023-01-15T17:55:45.209Z,6.09
2023-01-15T17:58:34.693Z,5.98
2023-01-15T18:01:29.775Z,5.98
2023-01-15T18:04:17.936Z,6.17
2023-01-15T18:06:50.577Z,6.14
2023-01-15T18:09:21.540Z,6.12
2023-01-15T18:11:49.550Z,6.00
2023-01-15T18:14:17.887Z,6.25
2023-01-15T18:16:45.882Z,6.21
2023-01-15T18:19:13.650Z,6.09
2023-01-15T18:21:42.220Z,6.14
2023-01-15T18:24:11.913Z,6.15
2023-01-15T18:26:41.726Z,6.08
2023-01-15T18:29:11.598Z,6.14
2023-01-15T18:31:40.643Z,6.07
2023-01-15T18:34:08.839Z,6.04
2023-01-15T18:36:36.855Z,5.99
2023-01-15T18:39:07.362Z,6.11
2023-01-15T18:41:36.323Z,6.04
2023-01-15T18:44:31.726Z,6.04
2023-01-15T18:47:06.027Z,5.95
2023-01-15T18:49:33.656Z,5.96
2023-01-15T18:52:20.206Z,5.96
2023-01-15T18:54:47.917Z,6.03
2023-01-15T18:57:16.627Z,6.00
2023-01-15T18:59:48.292Z,6.03
2023-01-15T19:02:17.975Z,5.97
2023-01-15T19:04:47.279Z,6.05
2023-01-15T19:07:16.246Z,5.99
2023-01-15T19:09:44.016Z,6.03
2023-01-15T19:12:12.077Z,6.12
2023-01-15T19:14:58.061Z,6.10
2023-01-15T19:17:44.948Z,6.05
2023-01-15T19:20:15.228Z,5.96
2023-01-15T19:23:05.235Z,6.08
2023-01-15T19:25:36.462Z,6.03
2023-01-15T19:28:05.053Z,6.04
2023-01-15T19:30:34.965Z,6.05
2023-01-15T19:33:03.131Z,6.00
2023-01-15T19:35:31.585Z,6.00
2023-01-15T19:37:59.936Z,6.02
2023-01-15T19:40:27.590Z,5.92
2023-01-15T19:43:14.063Z,5.96
2023-01-15T19:46:03.582Z,6.05
2023-01-15T19:48:52.210Z,6.02
2023-01-15T19:51:21.109Z,5.89
2023-01-15T19:53:49.191Z,5.85
2023-01-15T19:56:16.817Z,5.82
2023-01-15T19:58:44.737Z,5.83
2023-01-15T20:01:17.432Z,5.71
2023-01-15T20:03:46.637Z,5.76
2023-01-15T20:06:14.341Z,5.56
2023-01-15T20:08:42.331Z,5.57
2023-01-15T20:11:10.099Z,5.61
2023-01-15T20:13:53.297Z,5.64
2023-01-15T20:16:22.752Z,5.52
2023-01-15T20:18:51.866Z,5.50
2023-01-15T20:21:19.785Z,5.53
2023-01-15T20:23:47.865Z,5.33
2023-01-15T20:26:16.069Z,5.47
2023-01-15T20:28:47.539Z,5.38
2023-01-15T20:31:17.696Z,5.47
2023-01-15T20:33:47.012Z,5.39
2023-01-15T20:36:14.978Z,5.38
2023-01-15T20:38:43.007Z,5.34
2023-01-15T20:41:30.600Z,5.29
2023-01-15T20:44:17.061Z,5.32
2023-01-15T20:46:44.749Z,5.22
2023-01-15T20:49:25.231Z,5.23
2023-01-15T20:51:53.539Z,5.21
2023-01-15T20:54:22.177Z,5.28
2023-01-15T20:56:49.824Z,5.14
2023-01-15T20:59:17.803Z,5.13
2023-01-15T21:01:45.646Z,5.11
2023-01-15T21:04:13.953Z,5.21
2023-01-15T21:06:41.876Z,5.16
2023-01-15T21:09:09.906Z,5.15
2023-01-15T21:11:37.620Z,5.20
2023-01-15T21:14:05.555Z,5.30
2023-01-15T21:16:33.408Z,5.15
2023-01-15T21:19:04.478Z,5.17
2023-01-15T21:21:32.260Z,5.28
2023-01-15T21:24:01.631Z,5.20
2023-01-15T21:26:30.040Z,5.17
2023-01-15T21:28:58.152Z,5.22
2023-01-15T21:31:26.003Z,5.12
2023-01-15T21:33:55.430Z,5.13
2023-01-15T21:36:24.477Z,5.25
2023-01-15T21:38:56.858Z,5.29
2023-01-15T21:41:45.277Z,5.28
2023-01-15T21:44:36.002Z,5.31
2023-01-15T21:47:06.487Z,5.21
2023-01-15T21:49:35.089Z,5.14
2023-01-15T21:52:05.183Z,5.29
2023-01-15T21:54:33.607Z,5.20
2023-01-15T21:57:01.621Z,5.12
2023-01-15T21:59:29.836Z,5.01
2023-01-15T22:01:59.284Z,5.03
2023-01-15T22:04:29.115Z,5.12
2023-01-15T22:06:57.343Z,5.17
2023-01-15T22:09:25.541Z,5.01
2023-01-15T22:11:53.679Z,5.00
2023-01-15T22:14:27.698Z,5.01
2023-01-15T22:16:57.245Z,4.96
2023-01-15T22:19:27.404Z,4.97
2023-01-15T22:21:57.820Z,5.04
2023-01-15T22:24:31.454Z,5.04
2023-01-15T22:27:00.455Z,4.99
2023-01-15T22:29:31.947Z,5.07
2023-01-15T22:32:01.086Z,5.14
2023-01-15T22:34:43.645Z,5.08
2023-01-15T22:37:14.630Z,5.09
2023-01-15T22:39:42.561Z,5.08
2023-01-15T22:42:24.377Z,4.95
2023-01-15T22:44:53.068Z,4.88
2023-01-15T22:47:22.411Z,4.91
2023-01-15T22:49:50.888Z,4.94
2023-01-15T22:52:18.711Z,4.87
2023-01-15T22:54:47.390Z,4.88
2023-01-15T22:57:16.672Z,4.83
2023-01-15T22:59:45.366Z,4.89
2023-01-15T23:02:13.694Z,4.86
2023-01-15T23:04:41.813Z,4.83
2023-01-15T23:07:10.070Z,4.79
2023-01-15T23:09:38.059Z,4.82
2023-01-15T23:12:05.827Z,4.78
2023-01-15T23:14:33.855Z,4.80
2023-01-15T23:17:01.704Z,4.94
2023-01-15T23:19:29.577Z,4.79
2023-01-15T23:21:57.921Z,4.62
2023-01-15T23:24:25.965Z,4.80
2023-01-15T23:26:53.610Z,4.76
2023-01-15T23:29:21.575Z,4.84
2023-01-15T23:31:49.146Z,4.72
2023-01-15T23:34:17.010Z,4.70
2023-01-15T23:36:44.610Z,4.63
2023-01-15T23:39:12.530Z,4.71
2023-01-15T23:41:58.653Z,4.63
2023-01-15T23:44:45.036Z,4.61
2023-01-15T23:47:12.743Z,4.58
2023-01-15T23:49:40.702Z,4.59
2023-01-15T23:52:08.447Z,4.60
2023-01-15T23:54:36.382Z,4.55
2023-01-15T23:57:04.434Z,4.66
2023-01-15T23:59:32.393Z,4.59
